Aérodrome :
LOGIN :

S'inscrire | Disclaimer

   EN    FR    IT 

 










Légende :    VFR   VFR Marginal   IFR   IFR Intensif   IFR Très Intensif
Visi : 
Plafond : 
>= 8 km
>= 3000ft
5 à 8 km
1000 à 3000 ft
1500m à 5 km
500 à 1000 ft
800 à 1500m
200 à 500 ft
< 800m
< 200 ft
Symboles :   Orages  Brouillard  Fortes neiges  Fortes précipitations  Vent > 20 kt
SIGMETs :   Divers  Orages  Givrage  Turbulence  Onde Orograph.  Cendres Volcan.







- Altitude de l'aérodrome : 75 ft
- Code IATA : YEO


EGDY - RNAS Yeovilton

DERNIER METAR :
  • 191950Z 19013KT 9999 FEW015 SCT024 14/12 Q0996 RERA WHT TEMPO SCT024 WHT

METARs EXPIRÉS :
  • 191928Z 16011KT 9999 -RA FEW010 SCT018 BKN050 13/12 Q0995 WHT NOSIG
  • 191850Z 19019KT 5000 RA FEW006 BKN014 13/12 Q0996 GRN BECMG SCT022 WHT
  • 191826Z 16023G36KT 5000 RA FEW010 BKN014 14/13 Q0995 GRN BECMG SCT022 WHT
  • 191750Z 15022G34KT 9999 -RA FEW015 SCT020 BKN025 14/12 Q0996 WHT TEMPO 7000 -RA SCT014 GRN

TAF TAF EGDY
Valide du 19 à 15h jusqu'au 20 à 00h UTC


191405Z 1915/1924 19008KT 9999 FEW010 BKN040
BECMG 1915/1917 16012KT FEW010 BKN020
TEMPO 1915/1919 16015G25KT 7000 -RA BKN010
TEMPO 1915/1919 5000 RA BKN008
BECMG 1918/1920 22015G25KT 9999 SCT020
TEMPO 1919/1924 7000 -SHRA FEW012 SCT015TCU
Pas de NOTAMs connus pour ce terrain.
2 SIGMETs publiés pour la FIR London (EGTT) :
 
Turbulence forte
EGTT SIGMET 03 VALID 192020/192330 EGRR
EGTT LONDON FIR SEV TURB FCST WI N5149 W00608 - N5024 W00401 - N5034 W00229 - N5000 W00200 - N4919 W00538 - N5053 W00720 - N5149 W00608 SFC/FL060 MOV E 20KT NC=
Turbulence forte
EGTT SIGMET 02 VALID 191720/192020 EGRR
EGTT LONDON FIR SEV TURB FCST WI N5210 W00549 - N4946 W00315 - N4909 W00623 - N5100 W00800 - N5210 W00549 SFC/FL060 MOV E 20KT WKN=



MET'MAP, la Météo Aéronautique d'un coup d'oeil ! - Copyright ORBIFLY Décembre 2007 - Disclaimer

ORBIFLY MET'MAP TEAM :

Programmation & Développement : Alexandra Zaïnal
Conception & Développement : Baudouin d'Aumeries
Co-Programmation & Développement : Marc-Olivier Méhu
Soutien technique & logistique : Manuel Goepfert

Contact : metmap@orbifly.com




SOURCES & CREDITS :

   NOAA